Time;durP1;ratioP1;P1;durP2;ratioP2;P2;SDS_P1;SDS_P2;PMS_P1;PMS_P2;Temp;Humidity;BMP_temperature;BMP_pressure;BME280_temperature;BME280_humidity;BME280_pressure;Samples;Min_cycle;Max_cycle;Signal;HPM_P1;HPM_P2
2021/12/18 00:00:30;;;;;;;15.93;8.57;;;4.60;99.90;;;;;;5270889;28;20024;-77
2021/12/18 00:03:01;;;;;;;15.18;8.27;;;4.60;99.90;;;;;;5270821;28;20535;-76
2021/12/18 00:05:32;;;;;;;21.33;11.25;;;4.60;99.90;;;;;;5270633;28;20095;-77
2021/12/18 00:08:03;;;;;;;14.07;8.00;;;4.70;99.90;;;;;;5271252;28;20106;-76
2021/12/18 00:10:34;;;;;;;10.25;6.43;;;4.70;99.90;;;;;;5270610;28;20085;-77
2021/12/18 00:13:05;;;;;;;9.27;4.85;;;4.60;99.90;;;;;;5270578;28;20405;-77
2021/12/18 00:15:36;;;;;;;7.13;4.25;;;4.40;99.90;;;;;;5270466;28;20028;-77
2021/12/18 00:18:07;;;;;;;9.98;4.28;;;4.40;99.90;;;;;;5270505;28;20380;-77
2021/12/18 00:20:38;;;;;;;8.85;4.75;;;4.50;99.90;;;;;;5270311;28;20138;-77
2021/12/18 00:23:09;;;;;;;13.02;6.55;;;4.40;99.90;;;;;;5270412;28;20107;-76
2021/12/18 00:25:40;;;;;;;15.25;6.90;;;4.50;99.90;;;;;;5270208;28;20116;-77
2021/12/18 00:28:11;;;;;;;15.73;6.95;;;4.40;99.90;;;;;;5269615;28;20482;-77
2021/12/18 00:30:43;;;;;;;11.95;6.30;;;4.40;99.90;;;;;;5270007;28;20126;-77
2021/12/18 00:33:14;;;;;;;15.10;5.55;;;4.40;99.90;;;;;;5270545;28;20361;-78
2021/12/18 00:35:45;;;;;;;11.32;5.55;;;4.40;99.90;;;;;;5270555;28;20099;-76
2021/12/18 00:38:16;;;;;;;13.95;5.05;;;4.40;99.90;;;;;;5270094;28;20548;-77
2021/12/18 00:40:58;;;;;;;14.68;6.38;;;4.40;99.90;;;;;;5270059;28;20144;-78
2021/12/18 00:43:33;;;;;;;13.63;7.10;;;4.30;99.90;;;;;;5270093;28;20031;-77
2021/12/18 00:46:04;;;;;;;14.32;6.70;;;4.30;99.90;;;;;;5269919;28;20377;-77
2021/12/18 00:48:36;;;;;;;16.25;7.00;;;4.20;99.90;;;;;;5269861;28;20035;-77
2021/12/18 00:51:07;;;;;;;12.25;6.93;;;4.20;99.90;;;;;;5269851;28;20387;-76
2021/12/18 00:53:38;;;;;;;12.43;6.05;;;4.30;99.90;;;;;;5269855;28;20017;-77
2021/12/18 00:56:08;;;;;;;12.55;5.93;;;4.10;99.90;;;;;;5269779;28;20028;-77
2021/12/18 00:58:39;;;;;;;12.93;6.38;;;4.20;99.90;;;;;;5269633;28;20020;-77
2021/12/18 01:01:11;;;;;;;10.00;5.65;;;4.20;99.90;;;;;;5269889;28;20544;-77
2021/12/18 01:03:43;;;;;;;9.52;5.78;;;4.30;99.90;;;;;;5269684;28;20059;-77
2021/12/18 01:06:15;;;;;;;17.52;6.32;;;4.20;99.90;;;;;;5269632;28;20157;-76
2021/12/18 01:08:48;;;;;;;24.48;14.77;;;4.20;99.90;;;;;;5269939;28;20352;-77
2021/12/18 01:16:52;;;;;;;10.48;5.65;;;4.30;99.90;;;;;;5269405;28;20024;-77
2021/12/18 01:25:13;;;;;;;34.92;15.75;;;4.30;99.90;;;;;;5269491;28;20051;-77
2021/12/18 01:27:44;;;;;;;20.45;11.07;;;4.40;99.90;;;;;;5269314;28;20031;-76
2021/12/18 01:30:15;;;;;;;15.57;8.00;;;4.40;99.90;;;;;;5269442;28;20425;-77
2021/12/18 01:32:46;;;;;;;12.75;6.45;;;4.50;99.90;;;;;;5269343;28;20461;-76
2021/12/18 01:35:18;;;;;;;12.57;6.57;;;4.50;99.90;;;;;;5269291;28;20091;-76
2021/12/18 01:37:50;;;;;;;17.83;7.85;;;4.40;99.90;;;;;;5269315;28;20028;-77
2021/12/18 01:40:22;;;;;;;13.27;6.28;;;4.50;99.90;;;;;;5274035;28;20023;-77
2021/12/18 01:53:55;;;;;;;12.15;5.63;;;4.50;99.90;;;;;;5273757;28;20017;-76
2021/12/18 01:59:53;;;;;;;11.27;5.20;;;4.50;99.90;;;;;;5273314;28;20032;-76
2021/12/18 02:02:24;;;;;;;12.25;5.70;;;4.30;99.90;;;;;;5273206;28;20028;-76
2021/12/18 02:04:56;;;;;;;9.07;5.38;;;4.40;99.90;;;;;;5273463;28;20498;-76
2021/12/18 02:07:27;;;;;;;9.52;5.13;;;4.20;99.90;;;;;;5273100;28;20112;-76
2021/12/18 02:10:05;;;;;;;11.07;5.97;;;4.30;99.90;;;;;;5271805;28;20534;-76
2021/12/18 02:21:16;;;;;;;5.93;3.50;;;4.00;99.90;;;;;;5272834;28;20048;-77
2021/12/18 02:23:47;;;;;;;6.00;3.03;;;4.00;99.90;;;;;;5273438;28;20056;-76
2021/12/18 02:26:20;;;;;;;7.95;3.03;;;3.80;99.90;;;;;;5272592;28;20120;-76
2021/12/18 02:28:53;;;;;;;4.55;3.28;;;3.80;99.90;;;;;;5272727;28;20016;-77
2021/12/18 02:31:25;;;;;;;4.72;2.90;;;3.90;99.90;;;;;;5272444;28;20123;-76
2021/12/18 02:33:56;;;;;;;8.15;3.13;;;3.90;99.90;;;;;;5272598;28;20030;-77
2021/12/18 02:36:27;;;;;;;4.53;3.00;;;3.90;99.90;;;;;;5272544;28;20110;-77
2021/12/18 02:39:17;;;;;;;8.55;3.67;;;3.90;99.90;;;;;;5272522;28;20016;-76
2021/12/18 02:42:22;;;;;;;8.82;3.92;;;3.90;99.90;;;;;;5273099;28;20110;-76
2021/12/18 02:44:46;;;;;;;10.13;3.65;;;4.00;99.90;;;;;;5271023;28;20115;-76
2021/12/18 02:47:16;;;;;;;10.40;3.58;;;4.00;99.90;;;;;;5272299;28;20114;-76
2021/12/18 02:49:50;;;;;;;11.45;4.68;;;3.90;99.90;;;;;;5271446;28;20432;-77
2021/12/18 02:52:28;;;;;;;14.80;6.03;;;4.00;99.90;;;;;;5272288;28;20031;-77
2021/12/18 02:54:59;;;;;;;15.98;8.23;;;4.20;99.90;;;;;;5272637;28;20539;-77
2021/12/18 02:57:31;;;;;;;20.02;8.35;;;4.30;99.90;;;;;;5272438;28;20119;-76
2021/12/18 03:00:04;;;;;;;19.15;9.07;;;4.40;99.90;;;;;;5272060;28;20049;-77
2021/12/18 03:02:41;;;;;;;17.70;8.88;;;4.50;99.90;;;;;;5272654;28;20060;-77
2021/12/18 03:05:19;;;;;;;15.98;7.82;;;4.50;99.90;;;;;;5271904;28;20020;-77
2021/12/18 03:07:57;;;;;;;17.17;8.27;;;4.50;99.90;;;;;;5272257;28;20024;-76
2021/12/18 03:19:28;;;;;;;15.88;7.43;;;4.70;99.90;;;;;;5272346;28;20420;-76
2021/12/18 03:24:43;;;;;;;16.77;7.47;;;4.70;99.90;;;;;;5271636;28;20417;-76
2021/12/18 03:27:13;;;;;;;14.60;8.70;;;4.90;99.90;;;;;;5272331;28;20030;-75
2021/12/18 03:29:44;;;;;;;24.88;8.98;;;4.80;99.90;;;;;;5271701;28;20471;-77
2021/12/18 03:32:15;;;;;;;15.15;6.95;;;4.70;99.90;;;;;;5271353;28;20046;-77
2021/12/18 03:34:46;;;;;;;14.77;8.02;;;4.80;99.90;;;;;;5271674;28;20483;-76
2021/12/18 03:37:18;;;;;;;14.35;8.10;;;4.80;99.90;;;;;;5271285;28;20026;-77
2021/12/18 03:39:49;;;;;;;15.82;7.32;;;4.90;99.90;;;;;;5271224;28;20024;-77
2021/12/18 03:42:20;;;;;;;13.77;8.27;;;4.90;99.90;;;;;;5271453;28;20074;-76
2021/12/18 03:44:51;;;;;;;15.73;7.50;;;4.80;99.90;;;;;;5271105;28;20024;-76
2021/12/18 03:47:23;;;;;;;15.82;8.30;;;4.80;99.90;;;;;;5271114;28;20024;-76
2021/12/18 03:49:53;;;;;;;15.95;7.40;;;4.70;99.90;;;;;;5271119;28;20032;-76
2021/12/18 03:52:25;;;;;;;15.68;7.65;;;4.90;99.90;;;;;;5270885;28;20031;-76
2021/12/18 03:54:56;;;;;;;18.25;7.93;;;4.90;99.90;;;;;;5271302;28;20429;-77
2021/12/18 03:57:26;;;;;;;17.08;7.63;;;5.00;99.90;;;;;;5270746;28;20024;-76
2021/12/18 03:59:57;;;;;;;20.13;8.68;;;5.00;99.90;;;;;;5270711;28;20028;-75
2021/12/18 04:02:28;;;;;;;16.10;6.80;;;5.00;99.90;;;;;;5270578;28;20028;-76
2021/12/18 04:04:59;;;;;;;15.43;6.30;;;5.00;99.90;;;;;;5271072;28;20028;-76
2021/12/18 04:07:30;;;;;;;12.18;5.65;;;5.00;99.90;;;;;;5269480;28;20103;-77
2021/12/18 04:10:01;;;;;;;14.70;5.55;;;5.00;99.90;;;;;;5270954;28;20124;-77
2021/12/18 04:12:31;;;;;;;15.07;6.05;;;5.10;99.90;;;;;;5271140;28;20090;-77
2021/12/18 04:15:03;;;;;;;19.23;6.57;;;5.10;99.90;;;;;;5270594;28;20494;-76
2021/12/18 04:17:34;;;;;;;10.40;6.55;;;5.00;99.90;;;;;;5271128;28;20028;-77
2021/12/18 04:20:05;;;;;;;11.23;5.47;;;5.10;99.90;;;;;;5270784;28;20044;-77
2021/12/18 04:22:36;;;;;;;12.02;5.40;;;5.00;99.90;;;;;;5270776;28;20456;-76
2021/12/18 04:25:24;;;;;;;10.43;5.18;;;5.10;99.90;;;;;;5270295;28;20032;-76
2021/12/18 04:27:55;;;;;;;10.82;4.90;;;5.00;99.90;;;;;;5270567;28;20491;-76
2021/12/18 04:30:26;;;;;;;9.52;4.47;;;5.10;99.90;;;;;;5270072;28;20020;-77
2021/12/18 04:32:57;;;;;;;11.38;4.50;;;5.10;99.90;;;;;;5270783;28;20047;-75
2021/12/18 04:35:28;;;;;;;12.02;4.88;;;5.00;99.90;;;;;;5270378;28;20051;-75
2021/12/18 04:38:00;;;;;;;12.90;4.82;;;5.00;99.90;;;;;;5270427;28;20024;-77
2021/12/18 04:40:30;;;;;;;9.95;4.97;;;5.00;99.90;;;;;;5270085;28;20020;-78
2021/12/18 04:43:03;;;;;;;14.43;4.70;;;5.00;99.90;;;;;;5270049;28;20024;-76
2021/12/18 04:45:34;;;;;;;11.13;5.10;;;5.00;99.90;;;;;;5270146;28;20063;-77
2021/12/18 04:48:05;;;;;;;9.77;5.03;;;5.00;99.90;;;;;;5270258;28;20453;-77
2021/12/18 04:50:36;;;;;;;9.10;4.72;;;5.10;99.90;;;;;;5269832;28;20024;-77
2021/12/18 04:53:06;;;;;;;10.27;4.80;;;4.90;99.90;;;;;;5269865;28;20039;-77
2021/12/18 04:55:37;;;;;;;11.90;5.20;;;5.00;99.90;;;;;;5269819;28;20384;-76
2021/12/18 04:58:08;;;;;;;12.77;5.35;;;5.00;99.90;;;;;;5269879;28;20076;-77
2021/12/18 05:00:45;;;;;;;7.88;4.22;;;5.10;99.90;;;;;;5269621;28;20035;-76
2021/12/18 05:03:17;;;;;;;8.98;4.00;;;5.10;99.90;;;;;;5269747;28;20036;-77
2021/12/18 05:05:48;;;;;;;9.43;3.20;;;5.10;99.90;;;;;;5269700;28;20024;-76
2021/12/18 05:08:19;;;;;;;6.28;2.72;;;5.30;99.90;;;;;;5269858;28;20020;-76
2021/12/18 05:10:50;;;;;;;6.18;2.55;;;5.20;99.90;;;;;;5269563;28;20028;-78
2021/12/18 05:13:21;;;;;;;7.20;2.90;;;5.30;99.90;;;;;;5269262;28;20034;-78
2021/12/18 05:15:52;;;;;;;8.02;2.42;;;5.30;99.90;;;;;;5269583;28;20020;-76
2021/12/18 05:18:23;;;;;;;9.57;2.45;;;5.30;99.90;;;;;;5269954;28;20367;-77
2021/12/18 05:20:53;;;;;;;7.80;2.95;;;5.30;99.90;;;;;;5269267;28;20066;-75
2021/12/18 05:23:24;;;;;;;6.63;2.13;;;5.40;99.90;;;;;;5269743;28;20024;-77
2021/12/18 05:25:55;;;;;;;5.97;2.83;;;5.30;99.90;;;;;;5269320;28;20487;-75
2021/12/18 05:28:26;;;;;;;5.68;2.50;;;5.30;99.90;;;;;;5269812;28;20025;-75
2021/12/18 05:30:57;;;;;;;10.43;2.60;;;5.40;99.90;;;;;;5269385;28;20044;-78
2021/12/18 05:33:27;;;;;;;9.52;2.45;;;5.40;99.90;;;;;;5269910;28;20116;-76
2021/12/18 05:35:58;;;;;;;7.38;1.80;;;5.40;99.90;;;;;;5269323;28;20028;-77
2021/12/18 05:38:29;;;;;;;7.43;2.20;;;5.50;99.90;;;;;;5269851;28;20413;-77
2021/12/18 05:41:00;;;;;;;9.88;2.35;;;5.50;99.90;;;;;;5269182;28;20042;-76
2021/12/18 05:43:31;;;;;;;6.10;2.42;;;5.40;99.90;;;;;;5268009;28;20028;-76
2021/12/18 05:46:01;;;;;;;5.28;1.83;;;5.50;99.90;;;;;;5269110;28;20034;-76
2021/12/18 05:48:32;;;;;;;5.32;2.20;;;5.50;99.90;;;;;;5269538;28;20062;-75
2021/12/18 05:51:05;;;;;;;3.35;1.70;;;5.50;99.90;;;;;;5269716;28;20025;-77
2021/12/18 05:53:36;;;;;;;7.88;1.80;;;5.60;99.90;;;;;;5269467;28;20020;-75
2021/12/18 05:56:07;;;;;;;9.13;1.70;;;5.50;99.90;;;;;;5269126;28;20024;-77
2021/12/18 05:58:38;;;;;;;3.67;1.60;;;5.60;99.90;;;;;;5269028;28;20471;-75
2021/12/18 06:01:10;;;;;;;5.10;1.30;;;5.60;99.90;;;;;;5269551;28;20073;-75
2021/12/18 06:03:42;;;;;;;9.57;1.77;;;5.60;99.90;;;;;;5269698;28;20417;-76
2021/12/18 06:06:13;;;;;;;5.65;1.73;;;5.60;99.90;;;;;;5268953;28;20024;-76
2021/12/18 06:08:44;;;;;;;4.03;1.58;;;5.60;99.90;;;;;;5269334;28;20062;-75
2021/12/18 06:11:17;;;;;;;3.55;1.73;;;5.60;99.90;;;;;;5269144;28;20060;-75
2021/12/18 06:13:50;;;;;;;5.20;1.98;;;5.70;99.90;;;;;;5268874;28;20076;-76
2021/12/18 06:16:22;;;;;;;4.32;1.55;;;5.60;99.90;;;;;;5268807;28;20103;-78
2021/12/18 06:18:53;;;;;;;5.72;1.67;;;5.80;99.90;;;;;;5269473;28;20032;-75
2021/12/18 06:21:24;;;;;;;6.28;2.08;;;5.80;99.90;;;;;;5268857;28;20055;-76
2021/12/18 06:23:55;;;;;;;4.07;1.38;;;5.70;99.90;;;;;;5269108;28;20028;-75
2021/12/18 06:26:27;;;;;;;4.85;1.60;;;5.80;99.90;;;;;;5273151;28;20039;-75
2021/12/18 06:28:57;;;;;;;8.07;1.67;;;5.70;99.90;;;;;;5273008;28;20031;-76
2021/12/18 06:31:29;;;;;;;6.10;1.92;;;5.80;99.90;;;;;;5272964;28;20036;-75
2021/12/18 06:33:59;;;;;;;8.00;2.63;;;5.70;99.90;;;;;;5273153;28;20035;-76
2021/12/18 06:36:30;;;;;;;6.13;2.47;;;5.70;99.90;;;;;;5273089;28;20028;-76
2021/12/18 06:39:01;;;;;;;5.40;1.77;;;5.80;99.90;;;;;;5272521;28;20028;-75
2021/12/18 06:41:32;;;;;;;5.70;1.75;;;5.80;99.90;;;;;;5272386;28;20374;-76
2021/12/18 06:44:03;;;;;;;4.50;1.40;;;5.80;99.90;;;;;;5272750;28;20020;-76
2021/12/18 06:46:34;;;;;;;5.22;1.70;;;5.90;99.90;;;;;;5272608;28;20479;-76
2021/12/18 06:49:06;;;;;;;8.38;1.38;;;5.90;99.90;;;;;;5272766;28;20043;-75
2021/12/18 06:51:38;;;;;;;5.60;1.55;;;5.90;99.90;;;;;;5272881;28;20042;-74
2021/12/18 06:54:09;;;;;;;5.95;1.75;;;5.90;99.90;;;;;;5272437;28;20024;-76
2021/12/18 06:56:40;;;;;;;6.50;1.33;;;6.00;99.90;;;;;;5271556;28;20599;-77
2021/12/18 06:59:10;;;;;;;3.58;1.63;;;6.00;99.90;;;;;;5272206;28;20023;-75
2021/12/18 07:01:43;;;;;;;7.28;1.60;;;6.00;99.90;;;;;;5272175;28;20036;-75
2021/12/18 07:04:14;;;;;;;5.70;1.40;;;6.00;99.90;;;;;;5272127;28;20032;-75
2021/12/18 07:06:45;;;;;;;3.05;1.05;;;6.10;99.90;;;;;;5272035;28;20077;-76
2021/12/18 07:09:16;;;;;;;6.05;1.60;;;6.10;99.90;;;;;;5271948;28;20103;-75
2021/12/18 07:11:47;;;;;;;7.68;1.65;;;6.10;99.90;;;;;;5271726;28;20127;-76
2021/12/18 07:14:18;;;;;;;7.60;1.60;;;6.20;99.90;;;;;;5271953;28;20024;-77
2021/12/18 07:16:49;;;;;;;4.93;1.30;;;6.20;99.90;;;;;;5272257;28;20024;-76
2021/12/18 07:19:19;;;;;;;2.47;1.20;;;6.30;99.90;;;;;;5271996;28;20379;-75
2021/12/18 07:21:50;;;;;;;4.00;1.10;;;6.30;99.90;;;;;;5271859;28;20051;-75
2021/12/18 07:24:21;;;;;;;5.82;1.30;;;6.40;99.90;;;;;;5272149;28;20024;-76
2021/12/18 07:26:52;;;;;;;4.07;1.10;;;6.40;99.90;;;;;;5272037;28;20027;-75
2021/12/18 07:29:24;;;;;;;5.75;1.65;;;6.30;99.90;;;;;;5271329;28;20032;-75
2021/12/18 07:31:55;;;;;;;7.95;2.00;;;6.30;99.90;;;;;;5271487;28;20047;-76
2021/12/18 07:34:25;;;;;;;14.00;2.15;;;6.30;99.90;;;;;;5270457;28;20384;-76
2021/12/18 07:36:56;;;;;;;4.03;1.55;;;6.30;99.90;;;;;;5270070;28;20120;-75
2021/12/18 07:39:27;;;;;;;6.75;2.63;;;6.30;99.90;;;;;;5271550;28;20028;-74
2021/12/18 07:41:58;;;;;;;13.10;3.83;;;6.30;99.90;;;;;;5271972;28;20478;-77
2021/12/18 07:44:29;;;;;;;13.18;3.33;;;6.30;99.90;;;;;;5271195;28;20126;-76
2021/12/18 07:47:00;;;;;;;6.82;2.72;;;6.30;99.90;;;;;;5271440;28;20024;-75
2021/12/18 07:49:31;;;;;;;8.40;3.05;;;6.20;99.90;;;;;;5271088;28;20028;-76
2021/12/18 07:52:04;;;;;;;7.05;2.20;;;6.10;99.90;;;;;;5270923;28;20414;-75
2021/12/18 07:54:35;;;;;;;7.63;1.83;;;6.00;99.90;;;;;;5270898;28;20028;-77
2021/12/18 07:57:05;;;;;;;12.15;2.22;;;6.00;99.90;;;;;;5271027;28;20106;-77
2021/12/18 07:59:36;;;;;;;6.95;1.70;;;6.10;99.90;;;;;;5270968;28;20032;-76
2021/12/18 08:02:08;;;;;;;7.30;1.60;;;6.00;99.90;;;;;;5271258;28;20039;-77
2021/12/18 08:04:38;;;;;;;8.20;1.60;;;5.80;99.90;;;;;;5270876;28;20024;-75
2021/12/18 08:07:11;;;;;;;6.20;2.08;;;5.90;99.90;;;;;;5271043;28;20405;-74
2021/12/18 08:09:42;;;;;;;6.10;2.15;;;5.90;99.90;;;;;;5270639;28;20020;-75
2021/12/18 08:12:13;;;;;;;5.90;1.63;;;6.00;99.90;;;;;;5270806;28;20036;-75
2021/12/18 08:14:44;;;;;;;7.40;1.90;;;6.00;99.90;;;;;;5271018;28;20355;-76
2021/12/18 08:17:15;;;;;;;7.85;2.30;;;6.10;99.90;;;;;;5270447;28;20071;-77
2021/12/18 08:19:46;;;;;;;6.45;2.10;;;6.20;99.90;;;;;;5270537;28;20024;-77
2021/12/18 08:22:17;;;;;;;6.47;1.50;;;6.30;99.90;;;;;;5270756;28;20391;-76
2021/12/18 08:24:48;;;;;;;10.40;2.50;;;6.00;99.90;;;;;;5273358;28;20023;-76
2021/12/18 08:27:19;;;;;;;7.35;2.50;;;6.10;99.90;;;;;;5289657;28;20035;-76
2021/12/18 08:29:49;;;;;;;10.23;3.10;;;6.10;99.90;;;;;;5291332;28;20092;-76
2021/12/18 08:32:22;;;;;;;6.88;2.17;;;6.20;99.90;;;;;;5291285;28;20039;-76
2021/12/18 08:34:53;;;;;;;9.32;2.15;;;6.10;99.90;;;;;;5287881;28;20482;-76
2021/12/18 08:37:23;;;;;;;10.48;2.28;;;6.10;99.90;;;;;;5279970;28;20040;-76
2021/12/18 08:39:54;;;;;;;5.32;1.38;;;6.10;99.90;;;;;;5273052;27;20028;-76
2021/12/18 08:42:25;;;;;;;7.28;2.08;;;6.20;99.90;;;;;;5269931;28;20020;-76
2021/12/18 08:44:56;;;;;;;5.60;2.28;;;6.20;99.90;;;;;;5270089;28;20024;-76
2021/12/18 08:47:27;;;;;;;9.32;1.83;;;6.10;99.90;;;;;;5269917;28;20059;-76
2021/12/18 08:49:58;;;;;;;7.75;1.95;;;6.10;99.90;;;;;;5269651;28;20028;-76
2021/12/18 08:52:28;;;;;;;8.23;1.90;;;6.10;99.90;;;;;;5288951;27;20067;-76
2021/12/18 08:55:00;;;;;;;4.60;1.42;;;6.00;99.90;;;;;;5302030;27;20034;-76
2021/12/18 08:57:31;;;;;;;9.35;2.58;;;6.10;99.90;;;;;;5298397;27;20027;-76
2021/12/18 09:00:05;;;;;;;7.65;1.73;;;6.10;99.90;;;;;;5290122;27;20019;-76
2021/12/18 09:02:37;;;;;;;5.70;2.60;;;6.30;99.90;;;;;;5289475;28;20114;-76
2021/12/18 09:05:09;;;;;;;8.18;1.95;;;6.30;99.90;;;;;;5289006;28;20475;-76
2021/12/18 09:07:40;;;;;;;4.35;1.55;;;6.30;99.90;;;;;;5290304;28;20130;-75
2021/12/18 09:10:12;;;;;;;3.95;1.65;;;6.30;99.90;;;;;;5290261;28;20038;-76
2021/12/18 09:12:43;;;;;;;5.00;1.40;;;6.40;99.90;;;;;;5290230;28;20070;-76
2021/12/18 09:15:14;;;;;;;5.65;1.90;;;6.40;99.90;;;;;;5290183;28;20035;-76
2021/12/18 09:17:45;;;;;;;4.63;1.67;;;6.50;99.90;;;;;;5290097;28;20024;-75
2021/12/18 09:20:16;;;;;;;6.78;1.40;;;6.50;99.90;;;;;;5289934;28;20099;-77
2021/12/18 09:22:46;;;;;;;9.02;1.35;;;6.40;99.90;;;;;;5290159;28;20024;-76
2021/12/18 09:25:17;;;;;;;8.07;1.85;;;6.50;99.90;;;;;;5289871;28;20032;-77
2021/12/18 09:27:48;;;;;;;8.23;1.80;;;6.40;99.90;;;;;;5290005;28;20081;-76
2021/12/18 09:30:19;;;;;;;5.28;1.70;;;6.40;99.90;;;;;;5289920;28;20039;-76
2021/12/18 09:32:51;;;;;;;6.82;1.75;;;6.40;99.90;;;;;;5289833;28;20039;-76
2021/12/18 09:35:21;;;;;;;5.78;1.65;;;6.50;99.90;;;;;;5289999;28;20096;-76
2021/12/18 09:37:53;;;;;;;8.52;2.17;;;6.30;99.90;;;;;;5289798;28;20028;-74
2021/12/18 09:40:24;;;;;;;6.25;2.15;;;6.20;99.90;;;;;;5289878;28;20480;-76
2021/12/18 09:42:56;;;;;;;5.95;1.90;;;6.20;99.90;;;;;;5289926;28;20479;-75
2021/12/18 09:45:27;;;;;;;9.82;2.17;;;6.20;99.90;;;;;;5286450;28;20059;-75
2021/12/18 09:47:58;;;;;;;6.25;1.90;;;6.20;99.90;;;;;;5278017;28;20086;-76
2021/12/18 09:50:32;;;;;;;4.95;2.00;;;6.20;99.90;;;;;;5269132;28;20483;-77
2021/12/18 09:53:04;;;;;;;6.47;1.95;;;6.30;99.90;;;;;;5278445;28;20107;-76
2021/12/18 09:55:35;;;;;;;7.13;1.90;;;6.40;99.90;;;;;;5283301;28;20103;-75
2021/12/18 09:58:06;;;;;;;6.10;2.10;;;6.40;99.90;;;;;;5287340;28;20451;-76
2021/12/18 10:00:37;;;;;;;5.70;2.03;;;6.40;99.90;;;;;;5291414;28;20034;-76
2021/12/18 10:03:08;;;;;;;5.05;2.10;;;6.60;99.90;;;;;;5293786;28;20040;-78
2021/12/18 10:05:39;;;;;;;11.38;1.85;;;6.50;99.90;;;;;;5293294;28;20102;-76
2021/12/18 10:08:18;;;;;;;4.63;1.40;;;6.40;99.90;;;;;;5293569;28;20020;-76
2021/12/18 10:11:09;;;;;;;9.30;2.22;;;6.40;99.90;;;;;;5293673;28;20394;-76
2021/12/18 10:13:54;;;;;;;5.18;1.60;;;6.60;99.90;;;;;;5293132;28;20028;-76
2021/12/18 10:16:27;;;;;;;9.85;1.40;;;6.50;99.90;;;;;;5293825;28;20023;-76
2021/12/18 10:18:59;;;;;;;6.07;1.40;;;6.40;99.90;;;;;;5293507;28;20026;-75
2021/12/18 10:21:30;;;;;;;7.35;1.88;;;6.40;99.90;;;;;;5293508;28;20047;-76
2021/12/18 10:24:19;;;;;;;5.13;1.70;;;6.50;99.90;;;;;;5293472;28;20027;-77
2021/12/18 10:26:50;;;;;;;5.25;1.63;;;6.40;99.90;;;;;;5292119;28;20016;-76
2021/12/18 10:29:34;;;;;;;8.95;1.85;;;6.50;99.90;;;;;;5293288;27;20038;-75
2021/12/18 10:32:07;;;;;;;5.65;1.45;;;6.50;99.90;;;;;;5293324;28;20035;-76
2021/12/18 10:34:41;;;;;;;6.22;1.63;;;6.70;99.90;;;;;;5293406;28;20024;-76
2021/12/18 10:37:31;;;;;;;6.22;1.92;;;6.70;99.90;;;;;;5293254;27;20026;-75
2021/12/18 10:40:10;;;;;;;6.15;2.00;;;6.80;99.90;;;;;;5293281;28;20024;-76
2021/12/18 10:42:46;;;;;;;6.43;2.42;;;7.00;99.90;;;;;;5293261;28;20371;-78
2021/12/18 10:45:25;;;;;;;10.70;2.25;;;6.90;99.90;;;;;;5293193;28;20020;-76
2021/12/18 10:48:13;;;;;;;7.18;1.95;;;6.80;99.90;;;;;;5293126;28;20039;-77
2021/12/18 10:50:49;;;;;;;5.72;2.00;;;6.70;99.90;;;;;;5293150;27;20051;-75
2021/12/18 10:53:24;;;;;;;5.75;1.55;;;6.70;99.90;;;;;;5293090;28;20074;-77
2021/12/18 10:55:58;;;;;;;6.78;2.22;;;6.60;99.90;;;;;;5293011;28;20020;-76
2021/12/18 10:58:38;;;;;;;6.72;1.83;;;6.70;99.90;;;;;;5292831;28;20020;-77
2021/12/18 11:01:13;;;;;;;7.75;1.88;;;6.70;99.90;;;;;;5292838;28;20023;-76
2021/12/18 11:03:48;;;;;;;8.85;1.95;;;6.70;99.90;;;;;;5292750;28;20055;-77
2021/12/18 11:06:31;;;;;;;6.10;1.90;;;6.60;99.90;;;;;;5292742;27;20110;-76
2021/12/18 11:09:12;;;;;;;6.32;2.38;;;6.60;99.90;;;;;;5292766;28;20027;-77
2021/12/18 11:14:19;;;;;;;6.88;1.80;;;6.60;99.90;;;;;;5292552;28;20027;-76
2021/12/18 11:16:59;;;;;;;5.97;1.65;;;6.50;99.90;;;;;;5292539;28;20050;-76
2021/12/18 11:19:32;;;;;;;7.63;2.70;;;6.50;99.90;;;;;;5292554;28;20015;-76
2021/12/18 11:22:06;;;;;;;6.15;2.10;;;6.40;99.90;;;;;;5292311;28;20044;-77
2021/12/18 11:24:57;;;;;;;4.97;1.92;;;6.40;99.90;;;;;;5292263;28;20027;-75
2021/12/18 11:27:31;;;;;;;6.05;2.20;;;6.40;99.90;;;;;;5292293;28;20034;-76
2021/12/18 11:30:12;;;;;;;6.60;1.73;;;6.30;99.90;;;;;;5292227;28;20032;-76
2021/12/18 11:32:53;;;;;;;4.10;1.73;;;6.30;99.90;;;;;;5292156;28;20032;-76
2021/12/18 11:35:24;;;;;;;5.35;1.52;;;6.30;99.90;;;;;;5290921;28;20036;-76
2021/12/18 11:38:00;;;;;;;5.93;1.80;;;6.30;99.90;;;;;;5280446;28;20028;-76
2021/12/18 11:40:35;;;;;;;5.53;1.90;;;6.40;99.90;;;;;;5271637;28;20016;-76
2021/12/18 11:43:08;;;;;;;7.32;2.13;;;6.40;99.90;;;;;;5271579;28;20099;-76
2021/12/18 11:45:38;;;;;;;10.88;2.75;;;6.40;99.90;;;;;;5271445;28;20017;-77
2021/12/18 11:48:10;;;;;;;8.82;2.55;;;6.50;99.90;;;;;;5271349;28;20031;-76
2021/12/18 11:50:41;;;;;;;10.27;2.58;;;6.50;99.90;;;;;;5289749;28;20046;-74
2021/12/18 11:53:15;;;;;;;4.35;1.55;;;6.50;99.90;;;;;;5292470;28;20027;-73
2021/12/18 11:55:48;;;;;;;3.55;1.50;;;6.40;99.90;;;;;;5292099;28;20016;-73
2021/12/18 11:58:28;;;;;;;7.22;1.75;;;6.50;99.90;;;;;;5292165;28;20024;-74
2021/12/18 12:01:24;;;;;;;4.43;2.47;;;6.50;99.90;;;;;;5292176;28;20024;-74
2021/12/18 12:03:58;;;;;;;5.55;1.83;;;6.40;99.90;;;;;;5292211;28;20023;-75
2021/12/18 12:06:34;;;;;;;4.00;1.40;;;6.40;99.90;;;;;;5292069;28;20367;-75
2021/12/18 12:11:57;;;;;;;;;;;6.30;99.90;;;;;;5292491;28;20031;-74
2021/12/18 12:14:30;;;;;;;7.18;3.03;;;6.40;99.90;;;;;;5291970;28;19911;-74
2021/12/18 12:17:05;;;;;;;5.32;1.95;;;6.30;99.90;;;;;;5291913;28;20470;-74
2021/12/18 12:19:36;;;;;;;3.22;0.95;;;6.30;99.90;;;;;;5291737;28;20028;-74
2021/12/18 12:22:12;;;;;;;6.85;1.40;;;6.40;99.90;;;;;;5291799;28;20046;-74
2021/12/18 12:24:55;;;;;;;3.50;1.10;;;6.40;99.90;;;;;;5291842;28;20016;-74
2021/12/18 12:27:41;;;;;;;6.85;1.10;;;6.30;99.90;;;;;;5291741;28;20381;-74
2021/12/18 12:30:25;;;;;;;9.35;1.70;;;6.30;99.90;;;;;;5291447;28;20089;-73
2021/12/18 12:33:03;;;;;;;7.57;1.55;;;6.40;99.90;;;;;;5291532;28;20079;-74
2021/12/18 12:35:56;;;;;;;3.40;1.63;;;6.10;99.90;;;;;;5291760;28;20020;-77
2021/12/18 12:38:36;;;;;;;4.22;1.52;;;6.00;99.90;;;;;;5291466;28;20028;-74
2021/12/18 12:41:37;;;;;;;2.20;0.88;;;6.00;99.90;;;;;;5291249;28;20039;-73
2021/12/18 12:44:17;;;;;;;;;;;5.90;99.90;;;;;;5291671;28;20027;-72
2021/12/18 12:46:48;;;;;;;6.20;2.10;;;5.90;99.90;;;;;;5291538;28;19998;-74
2021/12/18 12:49:21;;;;;;;9.18;2.35;;;6.00;99.90;;;;;;5291377;28;20102;-74
2021/12/18 12:51:58;;;;;;;8.32;2.22;;;6.00;99.90;;;;;;5291284;28;20165;-74
2021/12/18 12:54:43;;;;;;;6.40;2.58;;;5.70;99.90;;;;;;5291073;28;20072;-74
2021/12/18 12:57:27;;;;;;;9.02;2.13;;;5.70;99.90;;;;;;5291029;28;20458;-73
2021/12/18 12:59:58;;;;;;;5.10;2.53;;;5.80;99.90;;;;;;5291063;28;20034;-73
2021/12/18 13:02:35;;;;;;;9.82;2.55;;;5.80;99.90;;;;;;5291042;28;20032;-73
2021/12/18 13:05:09;;;;;;;6.93;2.58;;;5.60;99.90;;;;;;5290064;28;20478;-76
2021/12/18 13:07:54;;;;;;;7.97;1.90;;;5.50;99.90;;;;;;5290918;28;20016;-73
2021/12/18 13:10:38;;;;;;;5.32;2.00;;;5.40;99.90;;;;;;5291013;28;20359;-76
2021/12/18 13:13:10;;;;;;;6.95;1.42;;;5.50;99.90;;;;;;5290922;28;20023;-73
2021/12/18 13:16:10;;;;;;;8.43;1.70;;;5.40;99.90;;;;;;5290841;28;20026;-73
2021/12/18 13:18:52;;;;;;;5.67;1.90;;;5.30;99.90;;;;;;5290909;28;20024;-72
2021/12/18 13:21:31;;;;;;;6.75;1.60;;;5.20;99.90;;;;;;5290569;28;20280;-73
2021/12/18 13:24:07;;;;;;;9.25;2.15;;;5.10;99.90;;;;;;5290571;28;20031;-73
2021/12/18 13:26:45;;;;;;;8.13;2.65;;;4.90;99.90;;;;;;5290496;28;20016;-73
2021/12/18 13:29:24;;;;;;;4.95;2.08;;;4.90;99.90;;;;;;5290841;28;20024;-75
2021/12/18 13:31:58;;;;;;;4.60;1.80;;;4.80;99.90;;;;;;5290597;28;20032;-73
2021/12/18 13:34:37;;;;;;;3.75;1.85;;;4.70;99.90;;;;;;5290063;28;20020;-74
2021/12/18 13:37:12;;;;;;;4.47;1.90;;;4.60;99.90;;;;;;5290734;28;20020;-76
2021/12/18 13:39:46;;;;;;;5.38;1.88;;;4.60;99.90;;;;;;5290373;28;20022;-74
2021/12/18 13:42:22;;;;;;;5.90;2.15;;;4.70;99.90;;;;;;5290472;28;20033;-74
2021/12/18 13:45:01;;;;;;;5.28;2.35;;;4.80;99.90;;;;;;5290251;28;20051;-73
2021/12/18 13:47:38;;;;;;;9.45;2.13;;;4.80;99.90;;;;;;5290912;28;20055;-77
2021/12/18 13:50:17;;;;;;;7.35;1.60;;;4.90;99.90;;;;;;5290643;28;20404;-76
2021/12/18 13:52:54;;;;;;;4.72;1.98;;;5.00;99.90;;;;;;5290870;28;20486;-73
2021/12/18 13:55:39;;;;;;;5.38;1.80;;;4.80;99.90;;;;;;5290397;28;20043;-76
2021/12/18 13:58:19;;;;;;;12.30;2.58;;;4.80;99.90;;;;;;5290444;28;20023;-73
2021/12/18 14:00:56;;;;;;;59.03;26.40;;;4.80;99.90;;;;;;5290747;28;20028;-74
2021/12/18 14:03:45;;;;;;;7.82;4.60;;;4.70;99.90;;;;;;5286256;28;20297;-75
2021/12/18 14:06:42;;;;;;;6.95;3.08;;;4.50;99.90;;;;;;5269221;28;20056;-74
2021/12/18 14:09:31;;;;;;;23.48;12.90;;;4.20;99.90;;;;;;5268208;28;20040;-74
2021/12/18 14:12:07;;;;;;;34.13;22.85;;;4.30;99.90;;;;;;5269108;28;20032;-76
2021/12/18 14:14:46;;;;;;;19.40;16.92;;;4.20;99.90;;;;;;5268997;28;20387;-73
2021/12/18 14:17:32;;;;;;;12.55;7.45;;;4.30;99.90;;;;;;5269350;28;20111;-73
2021/12/18 14:20:09;;;;;;;3.53;1.85;;;4.20;99.90;;;;;;5268998;28;20095;-70